Time;durP1;ratioP1;P1;durP2;ratioP2;P2;SDS_P1;SDS_P2;PMS_P1;PMS_P2;Temp;Humidity;BMP_temperature;BMP_pressure;BME280_temperature;BME280_humidity;BME280_pressure;Samples;Min_cycle;Max_cycle;Signal;HPM_P1;HPM_P2
2023/08/22 00:00:32;;;;;;;2.10;0.60;;;20.20;99.90;;;;;;4976943;28;20045;-75
2023/08/22 00:02:59;;;;;;;2.45;0.70;;;20.20;99.90;;;;;;4971930;28;20046;-81
2023/08/22 00:05:25;;;;;;;2.65;0.57;;;20.10;99.90;;;;;;4988856;28;20374;-78
2023/08/22 00:07:53;;;;;;;2.05;0.60;;;20.10;99.90;;;;;;4970864;28;20423;-81
2023/08/22 00:10:20;;;;;;;2.47;0.55;;;20.10;99.90;;;;;;4989849;28;20037;-80
2023/08/22 00:12:46;;;;;;;1.85;0.60;;;20.10;99.90;;;;;;4999891;28;20037;-80
2023/08/22 00:15:13;;;;;;;1.73;0.50;;;20.10;99.90;;;;;;4984692;28;20033;-74
2023/08/22 00:17:40;;;;;;;2.22;0.60;;;20.10;99.90;;;;;;4996942;28;20737;-79
2023/08/22 00:20:08;;;;;;;2.67;0.65;;;20.10;99.90;;;;;;4970640;28;20042;-79
2023/08/22 00:22:37;;;;;;;1.30;0.50;;;20.10;99.90;;;;;;4956337;28;20046;-75
2023/08/22 00:25:05;;;;;;;3.20;0.90;;;20.10;99.90;;;;;;4988443;28;20286;-76
2023/08/22 00:27:31;;;;;;;3.13;0.60;;;20.10;99.90;;;;;;4974696;28;20389;-78
2023/08/22 00:29:58;;;;;;;1.95;0.50;;;20.10;99.90;;;;;;4957731;28;20539;-79
2023/08/22 00:32:24;;;;;;;1.60;0.60;;;20.00;99.90;;;;;;4978615;28;20034;-80
2023/08/22 00:34:50;;;;;;;3.10;0.70;;;20.10;99.90;;;;;;4965240;28;20038;-78
2023/08/22 00:37:18;;;;;;;2.53;0.80;;;20.00;99.90;;;;;;4980081;28;20489;-80
2023/08/22 00:39:45;;;;;;;3.60;0.82;;;20.00;99.90;;;;;;4974684;28;20033;-79
2023/08/22 00:42:11;;;;;;;3.55;0.80;;;20.00;99.90;;;;;;4968862;28;20041;-78
2023/08/22 00:44:38;;;;;;;3.60;1.02;;;20.00;99.90;;;;;;4972843;28;20038;-74
2023/08/22 00:47:05;;;;;;;3.20;0.82;;;20.00;99.90;;;;;;4972174;28;20050;-80
2023/08/22 00:49:33;;;;;;;2.28;1.00;;;19.90;99.90;;;;;;4973831;28;20038;-80
2023/08/22 00:52:01;;;;;;;2.90;1.17;;;19.90;99.90;;;;;;4990374;28;20025;-77
2023/08/22 00:54:29;;;;;;;2.95;0.73;;;19.90;99.90;;;;;;4999816;28;20038;-78
2023/08/22 00:56:56;;;;;;;2.05;0.80;;;19.90;99.90;;;;;;4983329;28;20480;-80
2023/08/22 00:59:26;;;;;;;2.35;0.60;;;19.90;99.90;;;;;;4995566;28;20030;-76
2023/08/22 01:01:54;;;;;;;3.17;0.98;;;19.80;99.90;;;;;;4974851;28;20042;-77
2023/08/22 01:04:20;;;;;;;2.88;0.98;;;19.80;99.90;;;;;;4972630;28;20494;-76
2023/08/22 01:06:54;;;;;;;1.90;0.60;;;19.70;99.90;;;;;;4990359;28;20042;-80
2023/08/22 01:09:32;;;;;;;2.47;0.65;;;19.60;99.90;;;;;;4955440;28;20046;-81
2023/08/22 01:12:19;;;;;;;1.60;0.60;;;19.50;99.90;;;;;;4987759;28;20035;-75
2023/08/22 01:14:54;;;;;;;2.65;0.88;;;19.50;99.90;;;;;;4969159;28;20327;-74
2023/08/22 01:17:21;;;;;;;2.63;0.55;;;19.30;99.90;;;;;;4984516;28;20046;-80
2023/08/22 01:19:48;;;;;;;3.78;0.85;;;19.30;99.90;;;;;;4997273;28;20068;-76
2023/08/22 01:22:24;;;;;;;2.30;0.68;;;19.30;99.90;;;;;;4976282;28;20041;-79
2023/08/22 01:24:51;;;;;;;1.50;0.65;;;19.20;99.90;;;;;;4970712;28;20025;-78
2023/08/22 01:27:23;;;;;;;1.90;0.63;;;19.20;99.90;;;;;;4989332;28;20050;-82
2023/08/22 01:29:58;;;;;;;1.42;0.63;;;19.20;99.90;;;;;;4973691;28;20034;-81
2023/08/22 01:32:33;;;;;;;3.05;0.70;;;19.20;99.90;;;;;;4971425;28;20048;-79
2023/08/22 01:35:02;;;;;;;4.35;0.85;;;19.20;99.90;;;;;;4973388;28;20044;-81
2023/08/22 01:37:31;;;;;;;3.47;0.95;;;19.20;99.90;;;;;;4962980;28;20060;-78
2023/08/22 01:39:59;;;;;;;2.38;1.08;;;19.20;99.90;;;;;;4981023;28;20053;-80
2023/08/22 01:42:26;;;;;;;1.85;0.82;;;19.20;99.90;;;;;;4972809;28;20041;-79
2023/08/22 01:44:53;;;;;;;3.83;0.82;;;19.20;99.90;;;;;;4973611;28;20042;-81
2023/08/22 01:47:19;;;;;;;2.60;0.73;;;19.30;99.90;;;;;;4974772;28;20061;-77
2023/08/22 01:49:45;;;;;;;2.25;0.80;;;19.20;99.90;;;;;;4989715;28;20041;-76
2023/08/22 01:52:12;;;;;;;1.75;0.70;;;19.20;99.90;;;;;;4973776;28;20448;-79
2023/08/22 01:54:38;;;;;;;2.60;0.73;;;19.30;99.90;;;;;;4990634;28;20042;-77
2023/08/22 01:57:05;;;;;;;1.83;0.70;;;19.30;99.90;;;;;;4999566;28;20056;-79
2023/08/22 01:59:31;;;;;;;2.72;0.80;;;19.30;99.90;;;;;;4971984;28;20508;-76
2023/08/22 02:01:58;;;;;;;2.53;0.98;;;19.30;99.90;;;;;;4979927;28;21401;-76
2023/08/22 02:04:24;;;;;;;2.42;0.80;;;19.30;99.90;;;;;;4988864;28;20041;-80
2023/08/22 02:06:51;;;;;;;2.92;1.00;;;19.30;99.90;;;;;;4973528;28;20742;-76
2023/08/22 02:09:18;;;;;;;2.70;0.82;;;19.30;99.90;;;;;;4972612;28;20440;-77
2023/08/22 02:11:44;;;;;;;1.85;0.80;;;19.20;99.90;;;;;;4953441;28;20045;-79
2023/08/22 02:14:11;;;;;;;2.67;0.75;;;19.20;99.90;;;;;;4971186;28;20030;-79
2023/08/22 02:16:37;;;;;;;3.05;1.17;;;19.20;99.90;;;;;;4959701;28;20045;-79
2023/08/22 02:19:03;;;;;;;3.75;0.90;;;19.20;99.90;;;;;;4984379;28;20050;-76
2023/08/22 02:21:30;;;;;;;2.25;1.05;;;19.20;99.90;;;;;;4998341;28;21408;-75
2023/08/22 02:23:56;;;;;;;2.30;0.90;;;19.20;99.90;;;;;;4975438;28;20042;-77
2023/08/22 02:26:23;;;;;;;2.85;1.02;;;19.20;99.90;;;;;;4972715;28;20041;-80
2023/08/22 02:28:51;;;;;;;4.25;1.10;;;19.20;99.90;;;;;;4974443;28;21139;-80
2023/08/22 02:31:17;;;;;;;2.85;1.10;;;19.20;99.90;;;;;;4987229;28;20037;-80
2023/08/22 02:33:44;;;;;;;3.30;0.93;;;19.20;99.90;;;;;;4986667;28;20549;-78
2023/08/22 02:36:10;;;;;;;2.95;1.00;;;19.10;99.90;;;;;;4975038;28;20030;-81
2023/08/22 02:38:37;;;;;;;4.28;1.00;;;19.00;99.90;;;;;;4976668;28;20430;-75
2023/08/22 02:41:03;;;;;;;5.35;1.25;;;19.00;99.90;;;;;;4983427;28;20030;-78
2023/08/22 02:43:30;;;;;;;2.67;1.45;;;19.00;99.90;;;;;;4979368;28;20034;-76
2023/08/22 02:45:57;;;;;;;3.42;1.13;;;19.00;99.90;;;;;;4974993;28;20522;-80
2023/08/22 02:48:23;;;;;;;2.00;0.95;;;19.00;99.90;;;;;;4987703;28;20041;-81
2023/08/22 02:50:50;;;;;;;3.13;1.17;;;19.00;99.90;;;;;;4970740;28;20261;-76
2023/08/22 02:53:16;;;;;;;4.32;1.30;;;19.00;99.90;;;;;;4967925;28;20038;-79
2023/08/22 02:55:47;;;;;;;2.70;0.98;;;19.00;99.90;;;;;;4959160;28;20027;-78
2023/08/22 02:58:13;;;;;;;3.08;0.90;;;18.90;99.90;;;;;;4976367;28;20036;-79
2023/08/22 03:00:40;;;;;;;2.72;0.77;;;18.90;99.90;;;;;;4983295;28;20026;-75
2023/08/22 03:03:07;;;;;;;1.90;1.00;;;18.90;99.90;;;;;;4985371;28;20034;-78
2023/08/22 03:05:33;;;;;;;2.65;0.93;;;18.90;99.90;;;;;;4995804;28;20026;-78
2023/08/22 03:08:02;;;;;;;2.15;0.90;;;18.80;99.90;;;;;;4958338;28;20050;-79
2023/08/22 03:10:29;;;;;;;2.47;1.13;;;18.80;99.90;;;;;;4976391;28;20431;-77
2023/08/22 03:12:57;;;;;;;4.88;1.40;;;18.80;99.90;;;;;;4976020;28;20040;-75
2023/08/22 03:15:23;;;;;;;3.50;1.20;;;18.70;99.90;;;;;;4975017;28;20037;-79
2023/08/22 03:17:50;;;;;;;2.67;1.10;;;18.60;99.90;;;;;;4990900;28;20034;-75
2023/08/22 03:20:16;;;;;;;3.58;1.25;;;18.60;99.90;;;;;;4975474;28;20037;-76
2023/08/22 03:22:43;;;;;;;4.53;1.08;;;18.50;99.90;;;;;;4982213;28;20041;-77
2023/08/22 03:25:09;;;;;;;2.38;1.08;;;18.50;99.90;;;;;;4968161;28;20038;-78
2023/08/22 03:27:37;;;;;;;3.28;1.40;;;18.50;99.90;;;;;;4979216;28;20046;-78
2023/08/22 03:30:05;;;;;;;3.95;1.20;;;18.40;99.90;;;;;;4990024;28;20033;-75
2023/08/22 03:32:34;;;;;;;4.03;1.45;;;18.40;99.90;;;;;;4977641;28;20936;-76
2023/08/22 03:35:01;;;;;;;3.13;1.42;;;18.40;99.90;;;;;;4960783;28;20022;-75
2023/08/22 03:37:29;;;;;;;3.38;1.75;;;18.30;99.90;;;;;;4975558;28;20037;-78
2023/08/22 03:39:56;;;;;;;5.28;2.15;;;18.30;99.90;;;;;;4976916;28;20400;-79
2023/08/22 03:42:23;;;;;;;4.90;2.42;;;18.40;99.90;;;;;;4951413;28;20199;-78
2023/08/22 03:44:52;;;;;;;3.35;1.30;;;18.40;99.90;;;;;;4980154;28;20029;-77
2023/08/22 03:47:18;;;;;;;3.55;1.23;;;18.30;99.90;;;;;;4983686;28;20675;-76
2023/08/22 03:49:45;;;;;;;3.65;1.48;;;18.30;99.90;;;;;;4978547;28;20575;-80
2023/08/22 03:52:13;;;;;;;2.83;1.30;;;18.30;99.90;;;;;;4973779;28;20038;-79
2023/08/22 03:54:40;;;;;;;3.33;1.63;;;18.20;99.90;;;;;;4942853;28;20112;-79
2023/08/22 03:57:06;;;;;;;3.53;1.38;;;18.20;99.90;;;;;;4975193;28;20037;-75
2023/08/22 03:59:33;;;;;;;3.03;1.27;;;18.20;99.90;;;;;;4977349;28;20049;-79
2023/08/22 04:02:00;;;;;;;4.15;1.67;;;18.10;99.90;;;;;;4981034;28;20034;-78
2023/08/22 04:04:28;;;;;;;2.60;1.40;;;18.10;99.90;;;;;;4982812;28;20049;-78
2023/08/22 04:06:55;;;;;;;3.72;1.50;;;18.00;99.90;;;;;;4971513;28;20048;-78
2023/08/22 04:09:22;;;;;;;2.40;1.20;;;18.00;99.90;;;;;;4985963;28;20049;-77
2023/08/22 04:11:49;;;;;;;1.83;1.00;;;18.00;99.90;;;;;;4975657;28;20045;-80
2023/08/22 04:14:15;;;;;;;3.80;1.50;;;18.00;99.90;;;;;;4975917;28;20053;-77
2023/08/22 04:16:42;;;;;;;3.45;1.65;;;17.90;99.90;;;;;;4975852;28;20045;-79
2023/08/22 04:19:08;;;;;;;2.08;0.95;;;17.90;99.90;;;;;;4958895;28;20638;-74
2023/08/22 04:21:35;;;;;;;2.92;1.50;;;17.90;99.90;;;;;;4974733;28;20034;-79
2023/08/22 04:24:01;;;;;;;2.97;1.65;;;17.90;99.90;;;;;;4975990;28;20038;-80
2023/08/22 04:26:28;;;;;;;4.45;1.38;;;17.90;99.90;;;;;;4998651;28;20034;-74
2023/08/22 04:28:54;;;;;;;2.63;1.20;;;17.90;99.90;;;;;;5001614;28;20137;-76
2023/08/22 04:31:21;;;;;;;2.22;1.10;;;17.80;99.90;;;;;;4964556;28;20499;-77
2023/08/22 04:33:47;;;;;;;3.47;1.48;;;17.80;99.90;;;;;;4959177;28;20478;-79
2023/08/22 04:36:14;;;;;;;2.75;1.15;;;17.80;99.90;;;;;;4988858;28;20034;-81
2023/08/22 04:38:40;;;;;;;4.88;1.58;;;17.70;99.90;;;;;;4988619;28;20041;-74
2023/08/22 04:41:07;;;;;;;5.53;1.73;;;17.70;99.90;;;;;;4969737;28;20029;-75
2023/08/22 04:43:45;;;;;;;4.57;1.83;;;17.70;99.90;;;;;;4954573;28;20034;-80
2023/08/22 04:46:12;;;;;;;3.53;1.77;;;17.70;99.90;;;;;;4988843;28;20034;-78
2023/08/22 04:48:39;;;;;;;4.50;1.80;;;17.70;99.90;;;;;;4970599;28;20057;-75
2023/08/22 04:51:05;;;;;;;2.70;1.70;;;17.70;99.90;;;;;;4982485;28;20034;-75
2023/08/22 04:53:32;;;;;;;3.17;1.38;;;17.70;99.90;;;;;;4992104;28;20197;-77
2023/08/22 04:55:58;;;;;;;3.35;1.50;;;17.70;99.90;;;;;;4988388;28;20037;-74
2023/08/22 04:58:25;;;;;;;3.92;1.77;;;17.70;99.90;;;;;;4990439;28;20034;-79
2023/08/22 05:00:52;;;;;;;3.70;1.40;;;17.70;99.90;;;;;;4956074;28;20069;-78
2023/08/22 05:03:19;;;;;;;4.13;1.95;;;17.70;99.90;;;;;;4973425;28;20080;-73
2023/08/22 05:05:46;;;;;;;4.35;2.10;;;17.70;99.90;;;;;;4991760;28;20051;-78
2023/08/22 05:08:12;;;;;;;3.15;2.25;;;17.80;99.90;;;;;;4965806;28;20393;-80
2023/08/22 05:10:38;;;;;;;4.88;2.22;;;17.80;99.90;;;;;;4982799;28;20496;-79
2023/08/22 05:13:05;;;;;;;3.72;2.20;;;17.90;99.90;;;;;;4967106;28;20030;-79
2023/08/22 05:15:32;;;;;;;4.30;2.85;;;17.90;99.90;;;;;;4992073;28;20030;-81
2023/08/22 05:18:00;;;;;;;4.53;1.92;;;17.90;99.90;;;;;;4974001;28;21449;-79
2023/08/22 05:20:26;;;;;;;5.43;2.55;;;17.90;99.90;;;;;;4974747;28;20529;-80
2023/08/22 05:22:53;;;;;;;4.60;2.00;;;18.00;99.90;;;;;;4968439;28;20547;-79
2023/08/22 05:25:19;;;;;;;4.40;2.72;;;18.00;99.90;;;;;;4967570;28;20049;-74
2023/08/22 05:27:46;;;;;;;5.60;2.53;;;18.00;99.90;;;;;;4955184;28;20042;-77
2023/08/22 05:30:13;;;;;;;6.55;3.13;;;18.00;99.90;;;;;;4984649;28;20036;-79
2023/08/22 05:32:40;;;;;;;2.88;2.03;;;18.10;99.90;;;;;;4966371;28;20033;-80
2023/08/22 05:35:07;;;;;;;5.97;2.75;;;18.20;99.90;;;;;;4971181;28;20041;-76
2023/08/22 05:37:34;;;;;;;3.97;2.55;;;18.20;99.90;;;;;;4988584;28;20053;-76
2023/08/22 05:40:00;;;;;;;3.63;2.05;;;18.30;99.90;;;;;;4972018;28;20038;-78
2023/08/22 05:42:26;;;;;;;4.10;2.40;;;18.40;99.90;;;;;;4988136;28;20034;-79
2023/08/22 05:44:54;;;;;;;5.35;2.70;;;18.40;99.90;;;;;;4955485;28;20041;-82
2023/08/22 05:47:23;;;;;;;3.10;2.25;;;18.50;99.90;;;;;;4988213;28;20040;-74
2023/08/22 05:49:50;;;;;;;7.93;5.28;;;18.60;99.90;;;;;;4978782;28;20034;-81
2023/08/22 05:52:17;;;;;;;6.35;4.75;;;18.80;99.90;;;;;;4959562;28;20052;-78
2023/08/22 05:54:43;;;;;;;5.00;3.72;;;18.90;99.90;;;;;;4995424;28;20038;-78
2023/08/22 05:57:11;;;;;;;4.82;3.13;;;19.10;99.90;;;;;;4974812;28;20049;-77
2023/08/22 05:59:37;;;;;;;5.15;2.90;;;19.30;99.90;;;;;;4988241;28;20037;-80
2023/08/22 06:02:03;;;;;;;5.97;3.17;;;19.60;99.90;;;;;;4972039;28;20304;-80
2023/08/22 06:04:31;;;;;;;4.82;2.40;;;19.90;99.90;;;;;;4971480;28;20481;-78
2023/08/22 06:06:57;;;;;;;3.70;1.98;;;20.20;99.90;;;;;;4971487;28;20037;-76
2023/08/22 06:09:24;;;;;;;4.47;1.73;;;20.50;99.90;;;;;;4959805;28;20422;-82
2023/08/22 06:11:50;;;;;;;3.00;1.42;;;20.80;99.90;;;;;;4981470;28;20046;-80
2023/08/22 06:14:16;;;;;;;4.60;1.73;;;21.00;99.90;;;;;;4999809;28;20590;-78
2023/08/22 06:16:43;;;;;;;7.00;2.45;;;21.10;99.90;;;;;;4979526;28;20042;-82
2023/08/22 06:19:09;;;;;;;5.00;2.40;;;21.30;99.90;;;;;;4970618;28;20054;-79
2023/08/22 06:21:36;;;;;;;1.60;1.05;;;21.30;99.90;;;;;;4951478;28;20042;-84
2023/08/22 06:24:04;;;;;;;2.55;1.40;;;21.30;99.90;;;;;;4953459;28;20033;-77
2023/08/22 06:26:31;;;;;;;4.38;2.70;;;21.30;99.90;;;;;;4972086;28;20385;-80
2023/08/22 06:28:58;;;;;;;4.25;2.63;;;21.40;99.90;;;;;;4955759;28;20038;-82
2023/08/22 06:31:26;;;;;;;4.90;2.30;;;21.60;99.90;;;;;;4972964;28;20464;-78
2023/08/22 06:33:53;;;;;;;3.78;2.20;;;21.80;99.90;;;;;;4980411;28;20076;-77
2023/08/22 06:36:19;;;;;;;3.75;2.33;;;22.10;99.90;;;;;;4981577;28;20034;-74
2023/08/22 06:38:46;;;;;;;5.45;3.13;;;22.40;99.90;;;;;;4973927;28;20038;-81
2023/08/22 06:41:13;;;;;;;3.65;2.70;;;22.60;99.90;;;;;;4970408;28;20034;-82
2023/08/22 06:43:39;;;;;;;4.90;2.90;;;22.90;99.90;;;;;;4957952;28;20038;-80
2023/08/22 06:46:07;;;;;;;3.95;2.25;;;23.20;99.90;;;;;;4966803;28;20030;-76
2023/08/22 06:48:34;;;;;;;4.07;2.80;;;23.30;99.90;;;;;;4954674;28;20045;-79
2023/08/22 06:51:00;;;;;;;3.63;2.25;;;23.20;99.90;;;;;;4969976;28;20041;-80
2023/08/22 06:53:26;;;;;;;4.18;1.88;;;23.20;99.90;;;;;;4970215;28;20064;-81
2023/08/22 06:55:54;;;;;;;2.65;1.63;;;23.20;99.90;;;;;;4993588;28;20026;-80
2023/08/22 06:58:21;;;;;;;3.67;1.52;;;23.30;99.90;;;;;;4979659;28;20038;-79
2023/08/22 07:00:48;;;;;;;3.50;2.10;;;23.60;99.90;;;;;;4977026;28;20030;-78
2023/08/22 07:03:14;;;;;;;6.03;3.30;;;23.80;99.90;;;;;;4966548;28;20507;-81
2023/08/22 07:05:41;;;;;;;15.73;4.05;;;23.80;99.90;;;;;;4967398;28;20072;-82
2023/08/22 07:08:07;;;;;;;2.75;1.65;;;23.70;99.90;;;;;;4971423;28;20046;-82
2023/08/22 07:10:34;;;;;;;3.25;1.80;;;23.60;99.90;;;;;;4971149;28;20041;-79
2023/08/22 07:13:01;;;;;;;2.90;0.90;;;23.60;99.90;;;;;;4971058;28;20438;-80
2023/08/22 07:15:28;;;;;;;4.97;2.33;;;23.60;99.90;;;;;;4956311;28;20038;-81
2023/08/22 07:17:55;;;;;;;3.78;1.75;;;23.80;99.90;;;;;;4961792;28;20039;-79
2023/08/22 07:20:22;;;;;;;3.67;1.42;;;23.90;99.90;;;;;;4977334;28;20047;-80
2023/08/22 07:22:48;;;;;;;3.20;1.10;;;23.90;99.90;;;;;;4974785;28;20045;-77
2023/08/22 07:25:14;;;;;;;4.35;1.70;;;24.00;99.90;;;;;;4956789;28;20038;-78
2023/08/22 07:27:41;;;;;;;18.92;16.00;;;24.10;99.90;;;;;;4971753;28;20503;-75
2023/08/22 07:30:08;;;;;;;10.02;7.75;;;24.30;99.90;;;;;;4988355;28;20053;-82
2023/08/22 07:32:34;;;;;;;5.88;4.13;;;24.50;99.90;;;;;;4971860;28;20416;-83
2023/08/22 07:35:01;;;;;;;3.75;2.40;;;24.60;99.90;;;;;;4956572;28;20381;-83
2023/08/22 07:37:27;;;;;;;4.00;1.58;;;24.60;99.90;;;;;;4973860;28;20026;-78
2023/08/22 07:39:55;;;;;;;2.80;1.05;;;24.60;99.90;;;;;;4966658;28;20044;-80
2023/08/22 07:42:21;;;;;;;3.05;1.10;;;24.60;99.90;;;;;;4996166;28;20413;-81
2023/08/22 07:44:48;;;;;;;2.13;0.90;;;24.60;99.90;;;;;;4991421;28;20052;-82
2023/08/22 07:47:14;;;;;;;2.47;1.05;;;24.70;99.90;;;;;;4975234;28;20041;-74
2023/08/22 07:49:41;;;;;;;1.92;1.00;;;24.80;99.90;;;;;;4954903;28;20053;-81
2023/08/22 07:52:08;;;;;;;2.53;1.00;;;24.90;99.90;;;;;;4959125;28;20045;-81
2023/08/22 07:54:34;;;;;;;2.35;1.00;;;24.90;99.90;;;;;;4974811;28;20029;-80
2023/08/22 07:57:01;;;;;;;3.65;1.23;;;24.90;99.90;;;;;;4976565;28;20038;-74
2023/08/22 07:59:27;;;;;;;2.33;1.00;;;24.90;99.90;;;;;;4944215;28;20088;-80
2023/08/22 08:01:53;;;;;;;3.78;0.90;;;24.90;99.90;;;;;;5000344;28;20049;-81
2023/08/22 08:04:20;;;;;;;1.95;0.70;;;25.00;99.90;;;;;;4981961;28;20037;-80
2023/08/22 08:06:47;;;;;;;1.83;0.70;;;25.10;99.90;;;;;;4975367;28;20029;-81
2023/08/22 08:09:14;;;;;;;1.83;0.70;;;25.20;99.90;;;;;;4974379;28;20509;-77
2023/08/22 08:11:41;;;;;;;1.98;0.65;;;25.30;99.90;;;;;;4990274;28;20034;-75
2023/08/22 08:14:08;;;;;;;2.53;0.60;;;25.30;99.90;;;;;;4974995;28;21090;-79
2023/08/22 08:16:35;;;;;;;1.75;0.60;;;25.40;99.90;;;;;;4976243;28;20045;-78
2023/08/22 08:19:02;;;;;;;3.40;0.70;;;25.40;99.90;;;;;;4961687;28;20437;-79
2023/08/22 08:21:29;;;;;;;1.42;0.50;;;25.50;99.90;;;;;;5000693;28;20038;-78
2023/08/22 08:23:55;;;;;;;2.15;0.50;;;25.40;99.90;;;;;;4986963;28;20026;-74
2023/08/22 08:26:21;;;;;;;1.70;0.63;;;25.50;99.90;;;;;;4982590;28;20040;-76
2023/08/22 08:28:48;;;;;;;3.60;0.90;;;25.50;99.90;;;;;;4978876;28;20034;-81
2023/08/22 08:31:14;;;;;;;1.48;0.50;;;25.60;99.90;;;;;;4990232;28;20034;-80
2023/08/22 08:33:40;;;;;;;2.45;0.60;;;25.60;99.90;;;;;;4970901;28;21288;-79
2023/08/22 08:36:07;;;;;;;2.95;0.50;;;25.80;99.90;;;;;;4958338;28;20033;-75
2023/08/22 08:38:33;;;;;;;1.80;0.50;;;25.80;99.90;;;;;;4972438;28;20042;-75
2023/08/22 08:41:02;;;;;;;3.42;0.60;;;25.90;99.90;;;;;;4993736;28;20034;-80
2023/08/22 08:43:30;;;;;;;1.73;0.50;;;25.90;99.90;;;;;;4999127;28;20040;-74
2023/08/22 08:45:56;;;;;;;2.22;0.50;;;25.90;99.90;;;;;;4960544;28;20041;-81
2023/08/22 08:48:23;;;;;;;2.58;0.60;;;25.90;99.90;;;;;;4992540;28;20266;-82
2023/08/22 08:50:50;;;;;;;1.90;0.55;;;25.90;99.90;;;;;;4990856;28;20465;-82
2023/08/22 08:53:18;;;;;;;2.72;0.57;;;25.90;99.90;;;;;;4952847;28;20042;-78
2023/08/22 08:55:45;;;;;;;2.08;0.65;;;25.80;99.90;;;;;;4976751;28;20472;-80
2023/08/22 08:58:11;;;;;;;1.88;0.80;;;25.70;99.90;;;;;;4977322;28;20415;-76
2023/08/22 09:00:38;;;;;;;4.65;0.60;;;25.60;99.90;;;;;;4977146;28;21141;-76
2023/08/22 09:03:05;;;;;;;2.17;0.60;;;25.60;99.90;;;;;;4995750;28;20049;-77
2023/08/22 09:05:32;;;;;;;1.15;0.40;;;25.60;99.90;;;;;;4972725;28;20043;-75
2023/08/22 09:08:15;;;;;;;1.92;0.40;;;25.80;99.70;;;;;;4982882;28;20046;-77
2023/08/22 09:10:47;;;;;;;1.65;0.50;;;25.90;99.60;;;;;;4964591;28;20034;-77
2023/08/22 09:13:13;;;;;;;2.80;0.77;;;26.00;99.50;;;;;;4974188;28;20521;-80
2023/08/22 09:15:42;;;;;;;2.42;0.80;;;26.10;99.30;;;;;;4970613;28;20045;-81
2023/08/22 09:18:13;;;;;;;3.65;0.63;;;26.10;99.30;;;;;;4974195;28;20438;-78
2023/08/22 09:20:45;;;;;;;3.17;0.60;;;26.20;99.20;;;;;;4987876;28;20041;-74
2023/08/22 09:23:28;;;;;;;;;;;26.20;98.80;;;;;;4973145;28;20479;-78
2023/08/22 09:25:55;;;;;;;1.75;0.50;;;26.20;98.90;;;;;;4963436;28;19917;-76
2023/08/22 09:28:22;;;;;;;2.55;0.60;;;26.30;98.90;;;;;;4982603;28;20062;-79
2023/08/22 09:30:54;;;;;;;5.55;0.80;;;26.30;98.90;;;;;;4973860;28;20377;-82
2023/08/22 09:33:20;;;;;;;4.13;0.77;;;26.30;98.70;;;;;;4987688;28;20026;-82
2023/08/22 09:35:48;;;;;;;1.77;0.50;;;26.40;98.70;;;;;;4972795;28;20400;-74
2023/08/22 09:38:14;;;;;;;2.22;0.90;;;26.50;98.60;;;;;;4990143;28;20045;-80
2023/08/22 09:40:59;;;;;;;2.03;0.52;;;26.60;98.40;;;;;;4949888;28;20337;-75
2023/08/22 09:43:28;;;;;;;4.18;0.70;;;26.70;98.50;;;;;;4972335;28;20527;-79
2023/08/22 09:45:55;;;;;;;3.55;1.02;;;26.90;98.50;;;;;;4972628;28;20721;-79
2023/08/22 09:48:33;;;;;;;3.22;0.70;;;27.00;98.30;;;;;;4982005;28;20393;-75
2023/08/22 09:51:02;;;;;;;8.63;1.20;;;27.20;98.20;;;;;;5001249;28;20476;-77
2023/08/22 09:53:30;;;;;;;5.40;1.13;;;27.60;97.90;;;;;;4989474;28;20045;-80
2023/08/22 09:55:57;;;;;;;5.60;1.60;;;27.90;97.40;;;;;;4970849;28;20484;-78
2023/08/22 09:58:28;;;;;;;4.90;0.80;;;28.10;96.80;;;;;;4957876;28;20042;-79
2023/08/22 10:00:56;;;;;;;4.05;0.90;;;28.20;96.70;;;;;;4989804;28;20477;-83
2023/08/22 10:03:24;;;;;;;6.60;1.75;;;28.30;96.40;;;;;;4973557;28;20029;-81
2023/08/22 10:05:51;;;;;;;4.00;0.70;;;28.30;96.40;;;;;;4948848;28;20049;-76
2023/08/22 10:08:18;;;;;;;4.13;1.45;;;28.30;96.20;;;;;;4978064;28;20055;-78
2023/08/22 10:10:47;;;;;;;3.35;0.90;;;28.20;95.70;;;;;;4968046;28;20037;-80
2023/08/22 10:13:15;;;;;;;5.57;1.05;;;28.00;95.70;;;;;;4981186;28;20041;-80
2023/08/22 10:15:43;;;;;;;3.28;1.60;;;28.00;95.50;;;;;;4968427;28;20034;-80
2023/08/22 10:18:09;;;;;;;3.80;1.30;;;28.10;95.40;;;;;;4989860;28;20389;-78
2023/08/22 10:20:38;;;;;;;2.15;0.73;;;28.30;95.40;;;;;;4972305;28;20499;-77
2023/08/22 10:23:04;;;;;;;5.18;1.05;;;28.50;95.30;;;;;;4973396;28;20898;-81
2023/08/22 10:25:50;;;;;;;3.67;0.90;;;28.60;95.10;;;;;;4988134;28;20046;-82
2023/08/22 10:28:17;;;;;;;4.75;1.15;;;28.80;95.10;;;;;;4974038;28;20041;-78
2023/08/22 10:31:04;;;;;;;5.80;1.13;;;28.90;94.80;;;;;;4998107;28;21042;-77
2023/08/22 10:33:30;;;;;;;3.53;1.10;;;29.00;94.40;;;;;;4983853;28;20808;-77
2023/08/22 10:36:16;;;;;;;2.60;1.33;;;29.10;94.30;;;;;;4980320;28;20046;-76
2023/08/22 10:38:56;;;;;;;6.03;3.63;;;29.60;94.30;;;;;;4958969;28;20038;-79
2023/08/22 10:41:53;;;;;;;4.07;1.80;;;30.00;93.30;;;;;;4974894;28;20033;-85
2023/08/22 10:44:26;;;;;;;2.72;0.80;;;30.30;92.70;;;;;;4968363;28;20056;-82
2023/08/22 10:47:02;;;;;;;5.65;0.90;;;30.60;92.40;;;;;;4974378;28;20380;-83
2023/08/22 10:49:33;;;;;;;4.43;0.70;;;30.50;91.50;;;;;;4974097;28;20441;-79
2023/08/22 10:52:07;;;;;;;2.30;1.10;;;30.30;91.30;;;;;;4980380;28;20042;-81
2023/08/22 10:54:58;;;;;;;3.75;0.80;;;30.00;91.10;;;;;;4978973;28;20029;-82
2023/08/22 10:57:25;;;;;;;8.70;6.50;;;30.00;91.00;;;;;;4974172;28;20029;-81
2023/08/22 10:59:58;;;;;;;6.43;4.05;;;30.10;90.90;;;;;;4971447;28;20038;-76
2023/08/22 11:02:44;;;;;;;7.00;5.07;;;30.40;90.30;;;;;;4972083;28;20038;-82
2023/08/22 11:05:12;;;;;;;7.70;5.70;;;30.40;90.10;;;;;;4987183;28;20493;-83
2023/08/22 11:07:41;;;;;;;17.58;13.55;;;30.30;89.80;;;;;;4987960;28;20041;-85
2023/08/22 11:10:20;;;;;;;15.23;12.23;;;30.10;89.10;;;;;;4971847;28;20053;-77
2023/08/22 11:12:49;;;;;;;3.47;1.98;;;29.90;88.70;;;;;;4975658;28;20045;-84
2023/08/22 11:15:16;;;;;;;3.50;0.80;;;29.80;88.70;;;;;;4978297;28;20041;-80
2023/08/22 11:17:46;;;;;;;2.75;0.77;;;29.70;88.30;;;;;;4979212;28;20053;-84
2023/08/22 11:20:14;;;;;;;2.55;0.63;;;29.60;87.80;;;;;;4977164;28;20042;-83
2023/08/22 11:22:42;;;;;;;2.70;0.60;;;29.60;87.90;;;;;;4976900;28;20034;-82
2023/08/22 11:25:10;;;;;;;2.67;0.52;;;29.60;87.50;;;;;;4976026;28;20025;-83
2023/08/22 11:27:37;;;;;;;4.65;2.63;;;29.70;87.40;;;;;;4976773;28;20058;-84
2023/08/22 11:30:05;;;;;;;5.65;3.13;;;29.90;87.20;;;;;;4977228;28;20616;-80
2023/08/22 11:32:35;;;;;;;1.60;0.60;;;30.10;86.80;;;;;;4981100;28;20051;-80
2023/08/22 11:35:04;;;;;;;2.13;0.50;;;30.30;85.80;;;;;;4967231;28;20033;-78
2023/08/22 11:37:35;;;;;;;1.15;0.40;;;30.40;84.90;;;;;;4984634;28;20484;-82
2023/08/22 11:40:10;;;;;;;2.05;0.50;;;30.60;84.50;;;;;;4974379;28;20037;-82
2023/08/22 11:42:37;;;;;;;3.83;0.35;;;30.60;83.40;;;;;;4956902;28;20046;-76
2023/08/22 11:45:03;;;;;;;3.10;0.30;;;30.60;82.40;;;;;;4975218;28;20044;-82
2023/08/22 11:47:41;;;;;;;1.65;0.40;;;30.50;81.80;;;;;;4993437;28;20041;-83
2023/08/22 11:50:19;;;;;;;1.25;0.30;;;30.40;81.10;;;;;;4959725;28;20646;-76
2023/08/22 11:52:48;;;;;;;1.63;0.30;;;30.50;81.30;;;;;;4960173;28;20780;-77
2023/08/22 11:55:16;;;;;;;1.83;0.35;;;30.60;80.60;;;;;;4998740;28;20029;-84
2023/08/22 11:57:44;;;;;;;2.38;0.30;;;31.00;79.10;;;;;;4985235;28;20496;-81
2023/08/22 12:00:12;;;;;;;1.38;0.30;;;31.10;78.50;;;;;;4995958;28;20042;-84
2023/08/22 12:02:48;;;;;;;2.15;0.40;;;31.30;77.60;;;;;;4976485;28;20596;-77
2023/08/22 12:05:32;;;;;;;1.40;0.32;;;31.60;77.50;;;;;;4988654;28;20499;-84
2023/08/22 12:08:03;;;;;;;1.60;0.30;;;31.70;77.40;;;;;;4977352;28;20042;-84
2023/08/22 12:10:39;;;;;;;0.80;0.30;;;31.50;76.50;;;;;;4991007;28;20046;-81
2023/08/22 12:13:06;;;;;;;1.27;0.40;;;31.40;77.00;;;;;;4958789;28;20041;-80
2023/08/22 12:15:33;;;;;;;4.88;1.10;;;31.40;76.70;;;;;;4997260;28;20113;-85
2023/08/22 12:18:01;;;;;;;2.53;0.50;;;31.30;76.20;;;;;;4983220;28;20473;-79
2023/08/22 12:20:28;;;;;;;3.55;0.55;;;31.20;76.30;;;;;;4986432;28;20039;-79
2023/08/22 12:22:54;;;;;;;2.58;0.52;;;31.10;76.30;;;;;;4976767;28;20030;-84
2023/08/22 12:25:21;;;;;;;2.63;0.40;;;31.00;75.80;;;;;;4972291;28;20496;-79
2023/08/22 12:27:47;;;;;;;1.30;0.40;;;30.90;76.20;;;;;;4974317;28;20038;-84
2023/08/22 12:30:14;;;;;;;3.67;0.60;;;31.00;76.50;;;;;;4975173;28;20054;-84
2023/08/22 12:32:44;;;;;;;2.58;0.40;;;31.10;76.60;;;;;;4973688;28;20045;-81
2023/08/22 12:35:11;;;;;;;1.30;0.55;;;31.00;77.10;;;;;;4979029;28;20018;-77
2023/08/22 12:37:38;;;;;;;3.17;0.50;;;30.80;77.60;;;;;;4987894;28;20950;-84
2023/08/22 12:40:11;;;;;;;1.42;0.63;;;30.50;78.20;;;;;;5002461;28;20041;-83
2023/08/22 12:42:39;;;;;;;2.38;0.60;;;30.10;78.60;;;;;;4980144;28;20029;-86
2023/08/22 12:45:10;;;;;;;4.50;0.68;;;29.80;79.10;;;;;;4961962;28;20919;-76
2023/08/22 12:47:41;;;;;;;1.27;0.50;;;29.50;79.40;;;;;;4980939;28;20045;-84
2023/08/22 12:50:08;;;;;;;2.97;0.73;;;29.10;80.10;;;;;;4995617;28;20037;-84
2023/08/22 12:52:36;;;;;;;3.25;0.70;;;28.80;80.70;;;;;;4992958;28;20025;-79